createdAt,value
2022-11-10T00:02:45.566Z,14.10
2022-11-10T00:05:38.354Z,12.93
2022-11-10T00:08:28.799Z,15.17
2022-11-10T00:11:19.320Z,13.97
2022-11-10T00:14:30.165Z,12.47
2022-11-10T00:17:20.453Z,13.97
2022-11-10T00:20:11.505Z,14.47
2022-11-10T00:23:01.763Z,13.57
2022-11-10T00:25:52.255Z,13.50
2022-11-10T00:28:43.235Z,11.73
2022-11-10T00:31:33.704Z,15.77
2022-11-10T00:34:25.118Z,12.00
2022-11-10T00:37:15.467Z,15.93
2022-11-10T00:40:06.404Z,14.87
2022-11-10T00:42:56.930Z,11.50
2022-11-10T00:45:47.329Z,14.27
2022-11-10T00:48:37.875Z,12.97
2022-11-10T00:51:29.657Z,14.17
2022-11-10T00:54:19.954Z,12.20
2022-11-10T00:57:10.392Z,12.77
2022-11-10T01:00:00.868Z,10.53
2022-11-10T01:02:51.194Z,15.30
2022-11-10T01:05:42.283Z,15.70
2022-11-10T01:08:32.789Z,10.40
2022-11-10T01:11:27.981Z,14.10
2022-11-10T01:14:18.202Z,9.93
2022-11-10T01:17:08.659Z,12.17
2022-11-10T01:19:59.232Z,12.00
2022-11-10T01:22:49.751Z,15.67
2022-11-10T01:25:40.189Z,14.07
2022-11-10T01:28:31.951Z,13.73
2022-11-10T01:31:22.709Z,11.10
2022-11-10T01:34:13.059Z,12.70
2022-11-10T01:37:03.110Z,9.53
2022-11-10T01:39:53.742Z,9.67
2022-11-10T01:42:54.346Z,14.50
2022-11-10T01:46:06.360Z,12.87
2022-11-10T01:49:00.736Z,11.10
2022-11-10T01:51:58.297Z,10.83
2022-11-10T01:54:49.735Z,13.00
2022-11-10T01:57:41.541Z,12.87
2022-11-10T02:00:31.753Z,14.90
2022-11-10T02:03:47.343Z,12.50
2022-11-10T02:06:40.545Z,13.17
2022-11-10T02:09:30.968Z,12.03
2022-11-10T02:12:36.980Z,14.93
2022-11-10T02:15:27.695Z,12.50
2022-11-10T02:18:18.024Z,17.63
2022-11-10T02:21:09.460Z,13.90
2022-11-10T02:23:59.693Z,14.40
2022-11-10T02:26:54.372Z,14.77
2022-11-10T02:29:44.368Z,14.03
2022-11-10T02:32:34.742Z,12.63
2022-11-10T02:35:25.176Z,13.00
2022-11-10T02:38:15.700Z,15.43
2022-11-10T02:41:06.292Z,18.37
2022-11-10T02:43:58.388Z,13.10
2022-11-10T02:46:48.850Z,16.57
2022-11-10T02:49:39.293Z,14.50
2022-11-10T02:52:29.616Z,14.47
2022-11-10T02:55:19.898Z,16.63
2022-11-10T02:58:10.272Z,17.53
2022-11-10T03:01:04.389Z,15.17
2022-11-10T03:03:54.801Z,13.50
2022-11-10T03:06:45.091Z,17.40
2022-11-10T03:09:35.695Z,15.27
2022-11-10T03:12:25.733Z,18.70
2022-11-10T03:15:16.196Z,17.20
2022-11-10T03:18:06.751Z,14.87
2022-11-10T03:20:56.947Z,15.97
2022-11-10T03:23:47.616Z,18.70
2022-11-10T03:26:38.173Z,16.77
2022-11-10T03:29:28.630Z,16.30
2022-11-10T03:32:18.943Z,21.37
2022-11-10T03:35:10.044Z,18.17
2022-11-10T03:38:00.133Z,17.80
2022-11-10T03:41:17.428Z,18.40
2022-11-10T03:44:01.443Z,16.80
2022-11-10T03:46:52.020Z,21.47
2022-11-10T03:49:42.724Z,20.60
2022-11-10T03:52:33.747Z,23.40
2022-11-10T03:55:23.893Z,19.53
2022-11-10T03:58:14.301Z,20.27
2022-11-10T04:01:05.072Z,18.27
2022-11-10T04:03:56.568Z,21.30
2022-11-10T04:07:05.497Z,21.47
2022-11-10T04:09:55.702Z,21.33
2022-11-10T04:13:04.729Z,22.20
2022-11-10T04:15:55.213Z,17.77
2022-11-10T04:18:45.708Z,23.77
2022-11-10T04:21:36.254Z,19.33
2022-11-10T04:24:26.739Z,20.40
2022-11-10T04:27:17.257Z,17.63
2022-11-10T04:30:08.956Z,25.10
2022-11-10T04:32:59.119Z,20.13
2022-11-10T04:35:49.463Z,24.27
2022-11-10T04:38:40.416Z,22.00
2022-11-10T04:41:31.699Z,22.60
2022-11-10T04:44:22.070Z,18.23
2022-11-10T04:47:12.425Z,22.73
2022-11-10T04:50:03.018Z,16.03
2022-11-10T04:52:53.419Z,20.63
2022-11-10T04:55:45.096Z,19.00
2022-11-10T04:58:35.546Z,20.00
2022-11-10T05:01:27.783Z,20.97
2022-11-10T05:04:18.542Z,23.40
2022-11-10T05:07:09.065Z,21.30
2022-11-10T05:09:59.585Z,30.50
2022-11-10T05:12:52.540Z,17.43
2022-11-10T05:15:42.927Z,22.67
2022-11-10T05:18:33.505Z,17.80
2022-11-10T05:21:23.906Z,23.47
2022-11-10T05:24:14.224Z,19.57
2022-11-10T05:27:04.876Z,21.60
2022-11-10T05:29:55.486Z,18.50
2022-11-10T05:32:45.924Z,15.60
2022-11-10T05:35:37.187Z,16.40
2022-11-10T05:38:27.991Z,20.77
2022-11-10T05:41:18.168Z,37.53
2022-11-10T05:44:08.642Z,30.20
2022-11-10T05:46:59.195Z,16.57
2022-11-10T05:49:49.753Z,17.80
2022-11-10T05:52:50.038Z,13.93
2022-11-10T05:55:40.831Z,42.30
2022-11-10T05:58:31.114Z,21.30
2022-11-10T06:01:21.517Z,57.97
2022-11-10T06:04:11.994Z,23.93
2022-11-10T06:07:02.575Z,18.07
2022-11-10T06:09:52.909Z,22.67
2022-11-10T06:12:43.367Z,31.17
2022-11-10T06:15:33.819Z,22.57
2022-11-10T06:18:24.177Z,25.77
2022-11-10T06:21:14.607Z,24.57
2022-11-10T06:24:05.186Z,17.57
2022-11-10T06:26:55.544Z,43.30
2022-11-10T06:29:45.868Z,41.57
2022-11-10T06:32:36.357Z,17.13
2022-11-10T06:35:27.846Z,15.73
2022-11-10T06:38:18.313Z,16.97
2022-11-10T06:41:09.544Z,39.00
2022-11-10T06:44:00.270Z,28.70
2022-11-10T06:46:51.460Z,19.00
2022-11-10T06:49:41.763Z,29.27
2022-11-10T06:52:32.320Z,26.70
2022-11-10T06:55:22.596Z,19.53
2022-11-10T06:58:12.968Z,13.93
2022-11-10T07:01:03.500Z,16.77
2022-11-10T07:04:18.107Z,32.40
2022-11-10T07:07:04.358Z,19.27
2022-11-10T07:09:54.709Z,13.53
2022-11-10T07:12:44.991Z,11.23
2022-11-10T07:15:35.989Z,12.63
2022-11-10T07:18:26.267Z,9.97
2022-11-10T07:21:16.736Z,10.27
2022-11-10T07:24:07.618Z,10.37
2022-11-10T07:26:58.240Z,13.07
2022-11-10T07:29:48.767Z,12.93
2022-11-10T07:32:39.243Z,12.83
2022-11-10T07:35:30.368Z,12.70
2022-11-10T07:38:20.633Z,16.60
2022-11-10T07:41:11.030Z,25.57
2022-11-10T07:44:01.439Z,20.77
2022-11-10T07:46:51.852Z,14.20
2022-11-10T07:49:42.335Z,13.93
2022-11-10T07:52:32.764Z,18.20
2022-11-10T07:55:23.255Z,8.63
2022-11-10T07:58:17.408Z,12.77
2022-11-10T08:01:08.087Z,12.00
2022-11-10T08:03:58.540Z,9.00
2022-11-10T08:06:49.422Z,13.20
2022-11-10T08:09:39.761Z,8.33
2022-11-10T08:12:33.673Z,19.33
2022-11-10T08:15:25.705Z,26.23
2022-11-10T08:18:23.498Z,21.97
2022-11-10T08:21:14.088Z,13.90
2022-11-10T08:24:04.716Z,11.17
2022-11-10T08:26:55.759Z,6.53
2022-11-10T08:29:46.290Z,8.13
2022-11-10T08:32:36.706Z,6.73
2022-11-10T08:35:29.781Z,8.67
2022-11-10T08:38:22.197Z,9.90
2022-11-10T08:41:12.723Z,8.30
2022-11-10T08:44:03.107Z,7.70
2022-11-10T08:46:53.713Z,10.57
2022-11-10T08:49:44.369Z,9.33
2022-11-10T08:52:34.760Z,12.50
2022-11-10T08:55:25.199Z,14.07
2022-11-10T08:58:19.190Z,11.47
2022-11-10T09:01:11.550Z,10.33
2022-11-10T09:04:01.582Z,11.27
2022-11-10T09:06:52.070Z,10.73
2022-11-10T09:09:42.515Z,10.70
2022-11-10T09:12:32.998Z,14.27
2022-11-10T09:15:23.418Z,12.67
2022-11-10T09:18:15.268Z,12.77
2022-11-10T09:21:11.688Z,11.50
2022-11-10T09:24:02.205Z,8.20
2022-11-10T09:26:52.968Z,11.60
2022-11-10T09:29:43.205Z,11.40
2022-11-10T09:32:34.349Z,8.70
2022-11-10T09:35:25.591Z,9.83
2022-11-10T09:38:15.855Z,11.47
2022-11-10T09:41:09.085Z,8.17
2022-11-10T09:44:09.469Z,7.53
2022-11-10T09:47:35.279Z,8.57
2022-11-10T09:50:41.245Z,4.23
2022-11-10T09:53:44.787Z,2.20
2022-11-10T09:56:37.419Z,2.20
2022-11-10T09:59:30.081Z,2.73
2022-11-10T10:02:36.235Z,3.57
2022-11-10T10:05:46.371Z,2.47
2022-11-10T10:08:42.488Z,1.90
2022-11-10T10:11:46.776Z,3.27
2022-11-10T10:15:12.809Z,1.83
2022-11-10T10:18:23.712Z,5.57
2022-11-10T10:21:41.538Z,6.30
2022-11-10T10:24:33.410Z,3.80
2022-11-10T10:27:26.450Z,5.00
2022-11-10T10:30:20.625Z,2.87
2022-11-10T10:33:20.147Z,1.50
2022-11-10T10:36:28.025Z,2.87
2022-11-10T10:39:37.144Z,4.07
2022-11-10T10:42:32.942Z,4.07
2022-11-10T10:45:29.216Z,4.00
2022-11-10T10:48:28.445Z,4.40
2022-11-10T10:51:29.894Z,4.33
2022-11-10T10:54:24.816Z,2.50
2022-11-10T10:57:28.244Z,2.10
2022-11-10T11:00:22.608Z,4.40
2022-11-10T11:03:45.096Z,7.93
2022-11-10T11:06:36.888Z,4.23
2022-11-10T11:09:41.046Z,2.03
2022-11-10T11:12:32.909Z,1.67
2022-11-10T11:15:26.775Z,1.93
2022-11-10T11:18:20.500Z,2.97
2022-11-10T11:21:35.066Z,2.07
2022-11-10T11:24:43.506Z,2.30
2022-11-10T11:27:43.183Z,3.50
2022-11-10T11:31:05.926Z,3.00
2022-11-10T11:34:14.449Z,2.03
2022-11-10T11:37:37.228Z,3.20
2022-11-10T11:40:46.532Z,1.47
2022-11-10T11:43:55.492Z,2.10
2022-11-10T11:47:00.882Z,1.70
2022-11-10T11:49:51.132Z,0.70
2022-11-10T11:52:53.728Z,3.90
2022-11-10T11:56:04.213Z,1.37
2022-11-10T11:58:57.616Z,1.13
2022-11-10T12:02:09.299Z,2.93
2022-11-10T12:05:18.404Z,0.67
2022-11-10T12:08:31.261Z,3.63
2022-11-10T12:11:41.900Z,1.40
2022-11-10T12:14:53.939Z,0.93
2022-11-10T12:18:19.758Z,1.53
2022-11-10T12:21:23.389Z,0.70
2022-11-10T12:24:51.710Z,2.10
2022-11-10T12:27:49.183Z,2.60
2022-11-10T12:30:41.805Z,2.00
2022-11-10T12:33:38.495Z,2.37
2022-11-10T12:36:31.385Z,1.20
2022-11-10T12:39:29.627Z,0.90
2022-11-10T12:42:24.563Z,2.23
2022-11-10T12:45:23.628Z,8.30
2022-11-10T12:48:16.024Z,0.80
2022-11-10T12:51:44.237Z,4.83
2022-11-10T12:54:35.681Z,0.73
2022-11-10T12:57:28.452Z,3.20
2022-11-10T13:00:28.528Z,1.27
2022-11-10T13:03:26.688Z,0.93
2022-11-10T13:06:30.054Z,2.17
2022-11-10T13:09:41.157Z,1.00
2022-11-10T13:12:31.723Z,4.97
2022-11-10T13:15:37.926Z,2.17
2022-11-10T13:18:31.139Z,3.60
2022-11-10T13:22:04.796Z,1.43
2022-11-10T13:25:33.487Z,1.17
2022-11-10T13:28:48.711Z,2.03
2022-11-10T13:31:40.511Z,4.73
2022-11-10T13:34:35.981Z,3.67
2022-11-10T13:37:29.596Z,2.00
2022-11-10T13:40:26.001Z,2.70
2022-11-10T13:43:22.367Z,1.17
2022-11-10T13:46:13.607Z,1.67
2022-11-10T13:49:27.040Z,2.57
2022-11-10T13:52:21.788Z,1.10
2022-11-10T13:55:21.491Z,1.17
2022-11-10T13:58:24.839Z,0.83
2022-11-10T14:01:18.740Z,0.87
2022-11-10T14:04:33.882Z,2.63
2022-11-10T14:07:27.889Z,2.63
2022-11-10T14:10:24.008Z,1.47
2022-11-10T14:13:23.441Z,2.50
2022-11-10T14:16:24.024Z,1.57
2022-11-10T14:19:14.500Z,1.47
2022-11-10T14:22:21.876Z,1.80
2022-11-10T14:25:25.905Z,2.20
2022-11-10T14:28:34.822Z,0.97
2022-11-10T14:31:26.394Z,2.23
2022-11-10T14:34:18.128Z,1.53
2022-11-10T14:37:16.707Z,3.20
2022-11-10T14:40:17.161Z,1.57
2022-11-10T14:43:32.371Z,1.47
2022-11-10T14:46:24.753Z,3.10
2022-11-10T14:49:21.995Z,1.13
2022-11-10T14:52:13.735Z,2.43
2022-11-10T14:55:14.813Z,7.57
2022-11-10T14:58:13.472Z,5.27
2022-11-10T15:01:05.676Z,5.33
2022-11-10T15:03:57.405Z,2.27
2022-11-10T15:06:48.907Z,3.93
2022-11-10T15:09:39.003Z,2.37
2022-11-10T15:12:29.342Z,5.67
2022-11-10T15:15:22.289Z,4.10
2022-11-10T15:18:41.813Z,1.37
2022-11-10T15:21:34.066Z,2.50
2022-11-10T15:24:25.942Z,3.43
2022-11-10T15:27:28.443Z,1.83
2022-11-10T15:30:23.403Z,1.30
2022-11-10T15:33:16.807Z,3.13
2022-11-10T15:36:27.822Z,3.07
2022-11-10T15:39:23.427Z,1.63
2022-11-10T15:42:16.865Z,3.33
2022-11-10T15:45:07.812Z,4.50
2022-11-10T15:47:58.394Z,3.90
2022-11-10T15:50:52.528Z,5.87
2022-11-10T15:53:45.545Z,7.67
2022-11-10T15:56:35.753Z,11.00
2022-11-10T15:59:26.385Z,8.90
2022-11-10T16:02:25.061Z,6.43
2022-11-10T16:05:15.194Z,9.70
2022-11-10T16:08:12.627Z,10.53
2022-11-10T16:11:02.827Z,6.33
2022-11-10T16:13:54.547Z,9.80
2022-11-10T16:16:45.120Z,6.77
2022-11-10T16:19:35.224Z,9.73
2022-11-10T16:22:25.610Z,10.67
2022-11-10T16:25:22.594Z,13.27
2022-11-10T16:28:20.813Z,11.43
2022-11-10T16:31:11.808Z,12.30
2022-11-10T16:34:02.296Z,13.43
2022-11-10T16:36:52.775Z,17.97
2022-11-10T16:39:43.788Z,16.03
2022-11-10T16:42:34.235Z,13.13
2022-11-10T16:45:30.084Z,14.30
2022-11-10T16:48:23.545Z,14.00
2022-11-10T16:51:14.316Z,11.40
2022-11-10T16:54:04.668Z,12.30
2022-11-10T16:56:55.023Z,12.70
2022-11-10T16:59:45.772Z,13.93
2022-11-10T17:02:37.420Z,11.73
2022-11-10T17:05:28.189Z,14.33
2022-11-10T17:08:26.717Z,10.87
2022-11-10T17:11:17.332Z,10.80
2022-11-10T17:14:11.082Z,8.40
2022-11-10T17:17:02.170Z,8.93
2022-11-10T17:19:52.693Z,8.37
2022-11-10T17:22:42.992Z,6.77
2022-11-10T17:25:36.058Z,7.73
2022-11-10T17:28:26.132Z,9.47
2022-11-10T17:31:16.389Z,10.50
2022-11-10T17:34:06.912Z,10.07
2022-11-10T17:36:57.255Z,9.77
2022-11-10T17:39:47.808Z,11.03
2022-11-10T17:42:39.106Z,10.77
2022-11-10T17:45:30.178Z,13.47
2022-11-10T17:48:21.279Z,16.80
2022-11-10T17:51:19.759Z,17.80
2022-11-10T17:54:15.046Z,14.90
2022-11-10T17:57:06.200Z,26.80
2022-11-10T17:59:56.762Z,25.80
2022-11-10T18:02:51.187Z,17.07
2022-11-10T18:05:46.378Z,12.53
2022-11-10T18:08:37.600Z,12.00
2022-11-10T18:11:27.726Z,9.80
2022-11-10T18:14:18.239Z,10.07
2022-11-10T18:17:09.065Z,7.33
2022-11-10T18:19:59.471Z,10.90
2022-11-10T18:22:49.960Z,7.60
2022-11-10T18:25:41.840Z,7.47
2022-11-10T18:28:33.479Z,7.47
2022-11-10T18:31:23.794Z,6.30
2022-11-10T18:34:14.229Z,10.77
2022-11-10T18:37:04.741Z,11.53
2022-11-10T18:39:55.188Z,9.67
2022-11-10T18:42:45.709Z,9.37
2022-11-10T18:45:36.828Z,18.40
2022-11-10T18:48:31.055Z,16.20
2022-11-10T18:51:23.827Z,16.47
2022-11-10T18:54:14.530Z,17.40
2022-11-10T18:57:04.813Z,13.70
2022-11-10T18:59:55.305Z,13.63
2022-11-10T19:02:45.857Z,13.13
2022-11-10T19:05:38.554Z,12.27
2022-11-10T19:08:29.802Z,13.60
2022-11-10T19:11:20.254Z,11.70
2022-11-10T19:14:10.535Z,12.80
2022-11-10T19:17:00.900Z,15.27
2022-11-10T19:19:56.121Z,14.70
2022-11-10T19:22:46.979Z,11.93
2022-11-10T19:25:37.365Z,12.37
2022-11-10T19:28:28.672Z,14.63
2022-11-10T19:31:22.777Z,12.23
2022-11-10T19:34:13.126Z,19.60
2022-11-10T19:37:04.145Z,12.73
2022-11-10T19:39:54.240Z,11.27
2022-11-10T19:42:44.558Z,16.10
2022-11-10T19:45:35.144Z,12.13
2022-11-10T19:48:25.182Z,14.03
2022-11-10T19:51:17.412Z,11.33
2022-11-10T19:54:09.176Z,20.43
2022-11-10T19:56:59.434Z,26.50
2022-11-10T19:59:50.109Z,23.83
2022-11-10T20:02:45.395Z,17.07
2022-11-10T20:05:36.206Z,14.93
2022-11-10T20:08:27.260Z,18.53
2022-11-10T20:11:23.753Z,20.23
2022-11-10T20:14:13.971Z,15.97
2022-11-10T20:17:04.578Z,11.27
2022-11-10T20:19:55.086Z,12.30
2022-11-10T20:22:45.603Z,9.07
2022-11-10T20:25:36.091Z,8.50
2022-11-10T20:28:26.776Z,8.60
2022-11-10T20:31:21.289Z,6.20
2022-11-10T20:34:11.737Z,10.87
2022-11-10T20:37:02.452Z,10.10
2022-11-10T20:39:52.693Z,6.97
2022-11-10T20:42:43.095Z,6.40
2022-11-10T20:45:33.581Z,12.27
2022-11-10T20:48:23.905Z,8.70
2022-11-10T20:51:19.505Z,9.03
2022-11-10T20:54:09.827Z,7.90
2022-11-10T20:56:59.995Z,8.90
2022-11-10T20:59:50.403Z,12.97
2022-11-10T21:02:41.047Z,7.97
2022-11-10T21:05:31.217Z,11.57
2022-11-10T21:08:22.201Z,16.13
2022-11-10T21:11:32.904Z,15.17
2022-11-10T21:14:23.475Z,17.63
2022-11-10T21:17:14.056Z,15.07
2022-11-10T21:20:04.871Z,13.77
2022-11-10T21:23:02.104Z,18.63
2022-11-10T21:25:54.371Z,13.30
2022-11-10T21:28:44.961Z,14.97
2022-11-10T21:31:35.505Z,11.87
2022-11-10T21:34:25.968Z,7.17
2022-11-10T21:37:16.201Z,9.13
2022-11-10T21:40:07.071Z,11.93
2022-11-10T21:42:58.346Z,4.83
2022-11-10T21:45:48.656Z,5.70
2022-11-10T21:48:39.167Z,10.07
2022-11-10T21:51:29.872Z,5.53
2022-11-10T21:54:20.651Z,5.73
2022-11-10T21:57:11.006Z,10.40
2022-11-10T22:00:01.711Z,7.97
2022-11-10T22:02:57.835Z,9.90
2022-11-10T22:05:48.317Z,13.93
2022-11-10T22:08:39.287Z,9.77
2022-11-10T22:11:48.043Z,9.00
2022-11-10T22:14:57.647Z,11.57
2022-11-10T22:18:06.659Z,9.03
2022-11-10T22:20:57.274Z,9.20
2022-11-10T22:24:06.301Z,9.50
2022-11-10T22:26:59.123Z,12.80
2022-11-10T22:29:49.367Z,13.63
2022-11-10T22:32:39.919Z,11.67
2022-11-10T22:35:45.505Z,18.60
2022-11-10T22:38:40.152Z,7.70
2022-11-10T22:41:49.277Z,11.90
2022-11-10T22:44:39.813Z,12.83
2022-11-10T22:47:50.315Z,19.67
2022-11-10T22:50:40.779Z,13.50
2022-11-10T22:53:36.055Z,9.37
2022-11-10T22:56:26.765Z,26.90
2022-11-10T22:59:17.945Z,18.30
2022-11-10T23:02:08.600Z,12.47
2022-11-10T23:04:58.997Z,23.97
2022-11-10T23:07:49.417Z,17.00
2022-11-10T23:10:39.924Z,27.20
2022-11-10T23:13:30.795Z,21.17
2022-11-10T23:16:25.804Z,24.13
2022-11-10T23:19:16.210Z,13.60
2022-11-10T23:22:06.873Z,22.07
2022-11-10T23:24:57.672Z,12.50
2022-11-10T23:27:48.146Z,34.30
2022-11-10T23:30:38.485Z,10.93
2022-11-10T23:33:32.754Z,45.10
2022-11-10T23:36:25.846Z,13.13
2022-11-10T23:39:16.241Z,11.93
2022-11-10T23:42:07.109Z,16.87
2022-11-10T23:44:57.435Z,13.57
2022-11-10T23:47:47.889Z,12.83
2022-11-10T23:50:38.136Z,9.17
2022-11-10T23:53:28.963Z,9.90
2022-11-10T23:56:19.113Z,9.67
2022-11-10T23:59:09.660Z,21.10
